Currently N/A°F in Pinon Hills, California, USA
N/A°F Alert
N/A°F / N/A°F
N/A
N/A
Friday, January 20, 2017 4:03 PM PST

Pinon Hills, California Weather Summary
Last 36 Hours

Temperature Winds Hourly Humidity Dewpoint
Time Report Norm Report Norm Max Gusts Precip. Rpt. Norm Rpt. Norm Pressure
1Sun 04:10 PM  54.3°F  56°F  5 mph NW  2 mph  10 mph  0.00"  36%  30%  27°F  24°F  29.88"
Sun 04:00 PM  55.6°F  57°F  6 mph SW  2 mph  6 mph  0.00"  35%  29%  27°F  24°F  29.88"
Sun 03:00 PM  56.2°F  60°F  calm  4 mph  6 mph  0.00"  26%  26%  20°F  24°F  29.90"
Sun 02:00 PM  58.1°F  60°F  4 mph NE  4 mph  7 mph  0.00"  24%  26%  20°F  23°F  29.90"
Sun 01:00 PM  59.0°F  60°F  calm  4 mph  10 mph  0.00"  24%  25%  21°F  23°F  29.91"
Sun 12:00 PM  58.8°F  59°F  7 mph S  5 mph  15 mph  0.00"  23%  26%  19°F  23°F  29.92"
Sun 11:00 AM  65.2°F  58°F  7 mph E  5 mph  8 mph  0.00"  27%  28%  29°F  24°F  29.88"
2Sun 10:52 AM  66.0°F  58°F  2 mph NE  4 mph  8 mph  ----  27%  29%  30°F  24°F  29.89"
Sun 10:00 AM  60.7°F  57°F  3 mph NE  4 mph  9 mph  0.00"  41%  30%  36°F  25°F  29.95"
Sun 09:00 AM  52.1°F  55°F  1 mph S  3 mph  14 mph  0.01"  71%  31%  42°F  24°F  30.01"
3Sun 08:50 AM  50.8°F  54°F  3 mph NW  3 mph  7 mph  ----  75%  32%  43°F  24°F  30.01"
Sun 08:00 AM  56.3°F  52°F  1 mph SW  3 mph  7 mph  0.00"  51%  34%  38°F  23°F  30.01"
Sun 07:00 AM  53.0°F  47°F  calm  2 mph  6 mph  0.00"  34%  39%  24°F  22°F  30.00"
Sun 06:00 AM  51.8°F  46°F  2 mph SW  2 mph  4 mph  0.00"  29%  40%  19°F  22°F  30.02"
Sun 05:00 AM  56.0°F  46°F  calm  3 mph  5 mph  0.00"  36%  41%  29°F  22°F  30.01"
Sun 04:00 AM  54.1°F  46°F  calm  3 mph  8 mph  0.00"  21%  39%  13°F  22°F  30.03"
Sun 03:00 AM  56.9°F  47°F  2 mph SW  3 mph  6 mph  0.00"  21%  38%  16°F  22°F  30.02"
Sun 02:00 AM  55.9°F  47°F  calm  3 mph  7 mph  0.00"  19%  39%  12°F  22°F  30.04"
Sun 01:00 AM  62.8°F  47°F  calm  3 mph  15 mph  0.00"  26%  38%  26°F  22°F  30.03"
Sun 12:00 AM  63.5°F  48°F  7 mph S  3 mph  21 mph  0.00"  24%  36%  25°F  21°F  30.04"
Sat 11:00 PM  56.5°F  48°F  4 mph S  3 mph  10 mph  0.00"  21%  38%  16°F  23°F  30.06"
Sat 10:00 PM  51.6°F  48°F  1 mph SW  3 mph  5 mph  0.00"  18%  39%  8°F  23°F  30.07"
Sat 09:00 PM  49.8°F  49°F  calm  3 mph  5 mph  0.00"  20%  39%  8°F  24°F  30.07"
Sat 08:00 PM  53.3°F  49°F  calm  2 mph  8 mph  0.00"  17%  41%  8°F  25°F  30.07"
Sat 07:00 PM  60.2°F  49°F  4 mph N  3 mph  15 mph  0.00"  13%  39%  7°F  24°F  30.06"
Sat 06:00 PM  60.8°F  51°F  7 mph S  3 mph  7 mph  0.00"  16%  38%  13°F  25°F  30.04"
Sat 05:00 PM  57.1°F  52°F  calm  3 mph  5 mph  0.00"  16%  36%  9°F  25°F  30.05"
Sat 04:00 PM  58.6°F  58°F  calm  2 mph  9 mph  0.00"  15%  28%  8°F  24°F  30.07"
Sat 03:00 PM  65.1°F  60°F  4 mph SW  4 mph  8 mph  0.00"  11%  27%  7°F  25°F  30.04"
Sat 02:00 PM  63.6°F  61°F  2 mph N  4 mph  9 mph  0.00"  12%  26%  8°F  25°F  30.03"
Sat 01:00 PM  63.6°F  61°F  1 mph W  4 mph  5 mph  0.00"  12%  26%  8°F  24°F  30.06"
Sat 12:00 PM  60.6°F  60°F  1 mph E  5 mph  9 mph  0.00"  14%  27%  9°F  25°F  30.09"
Sat 11:00 AM  57.8°F  59°F  4 mph SW  5 mph  7 mph  0.00"  16%  29%  9°F  26°F  30.11"
Sat 10:00 AM  54.9°F  58°F  3 mph NE  4 mph  6 mph  0.00"  17%  31%  9°F  26°F  30.12"
Sat 09:00 AM  52.5°F  56°F  3 mph W  4 mph  5 mph  0.00"  18%  31%  9°F  25°F  30.12"
Sat 08:00 AM  48.1°F  53°F  3 mph NW  3 mph  6 mph  0.00"  21%  33%  8°F  24°F  30.12"
Sat 07:00 AM  39.3°F  48°F  calm  2 mph  none  0.00"  24%  39%  4°F  23°F  30.10"
Sat 06:00 AM  39.5°F  47°F  calm  3 mph  5 mph  0.00"  22%  41%  2°F  23°F  30.10"
Sat 05:00 AM  37.9°F  47°F  calm  3 mph  5 mph  0.00"  27%  41%  5°F  23°F  30.11"

  1. Current weather data. No green row appears if the current weather data is also the high or low for the current day.
  2. High temperature for the current day.
  3. Low temperature for the current day.

The Pinon Hills, California weather pages are a service of WeatherCurrents.
Copyright ©Fri Jan 20 16:03:46 PST 2017  WeatherCurrents. All rights reserved. - Submit questions and comments - Privacy Policy

This page automatically refreshes every 10 minutes.